Time;durP1;ratioP1;P1;durP2;ratioP2;P2;SDS_P1;SDS_P2;PMS_P1;PMS_P2;Temp;Humidity;BMP_temperature;BMP_pressure;BME280_temperature;BME280_humidity;BME280_pressure;Samples;Min_cycle;Max_cycle;Signal;HPM_P1;HPM_P2
2022/11/25 00:02:02;;;;;;;9.38;1.58;;;;;;;;;;5032598;28;20575;-64
2022/11/25 00:04:35;;;;;;;8.77;1.55;;;;;;;;;;5028696;28;20033;-64
2022/11/25 00:07:02;;;;;;;4.10;1.40;;;;;;;;;;5032699;28;20128;-63
2022/11/25 00:09:29;;;;;;;6.63;1.42;;;;;;;;;;5032622;28;20041;-63
2022/11/25 00:11:55;;;;;;;7.40;1.30;;;;;;;;;;5032224;28;21695;-63
2022/11/25 00:14:22;;;;;;;7.05;1.48;;;;;;;;;;5031770;28;20033;-65
2022/11/25 00:16:48;;;;;;;6.22;1.38;;;;;;;;;;5031536;28;20104;-63
2022/11/25 00:19:15;;;;;;;7.00;1.55;;;;;;;;;;5031296;28;20045;-62
2022/11/25 00:21:42;;;;;;;5.90;1.85;;;;;;;;;;5031205;28;20040;-62
2022/11/25 00:24:08;;;;;;;5.82;1.98;;;;;;;;;;5032753;28;20067;-68
2022/11/25 00:26:36;;;;;;;9.10;1.65;;;;;;;;;;5046580;28;20048;-65
2022/11/25 00:29:04;;;;;;;8.73;2.05;;;;;;;;;;5031826;28;20052;-62
2022/11/25 00:31:32;;;;;;;7.15;1.98;;;;;;;;;;5034871;28;20073;-63
2022/11/25 00:33:59;;;;;;;10.85;2.20;;;;;;;;;;5031733;28;20522;-63
2022/11/25 00:36:32;;;;;;;8.63;2.30;;;;;;;;;;5030830;28;20117;-62
2022/11/25 00:39:03;;;;;;;8.77;1.80;;;;;;;;;;5030761;28;20077;-68
2022/11/25 00:44:35;;;;;;;6.43;1.95;;;;;;;;;;5034440;28;20048;-65
2022/11/25 00:47:02;;;;;;;7.18;1.77;;;;;;;;;;5032273;28;20510;-66
2022/11/25 00:49:29;;;;;;;11.00;2.20;;;;;;;;;;5032189;28;20064;-63
2022/11/25 00:51:56;;;;;;;9.13;2.35;;;;;;;;;;5031724;28;20037;-62
2022/11/25 00:54:22;;;;;;;6.95;2.33;;;;;;;;;;5030745;28;20152;-64
2022/11/25 00:56:49;;;;;;;7.97;2.28;;;;;;;;;;5045505;28;21107;-64
2022/11/25 00:59:16;;;;;;;15.40;2.83;;;;;;;;;;5029355;28;20493;-64
2022/11/25 01:01:43;;;;;;;14.65;2.33;;;;;;;;;;5032622;28;20040;-63
2022/11/25 01:04:09;;;;;;;8.60;2.30;;;;;;;;;;5030704;28;20548;-62
2022/11/25 01:06:36;;;;;;;13.82;2.75;;;;;;;;;;5029650;28;20112;-64
2022/11/25 01:09:04;;;;;;;9.95;2.20;;;;;;;;;;5031815;28;20144;-64
2022/11/25 01:11:30;;;;;;;7.70;2.33;;;;;;;;;;5031369;28;20065;-62
2022/11/25 01:13:57;;;;;;;8.70;2.83;;;;;;;;;;5041645;28;20490;-64
2022/11/25 01:16:24;;;;;;;16.92;6.32;;;;;;;;;;5031128;28;21438;-64
2022/11/25 01:18:51;;;;;;;13.10;3.95;;;;;;;;;;5033015;28;20110;-62
2022/11/25 01:21:20;;;;;;;15.20;3.88;;;;;;;;;;5033727;28;20508;-64
2022/11/25 01:23:49;;;;;;;10.48;3.30;;;;;;;;;;5025179;28;20111;-65
2022/11/25 01:26:19;;;;;;;12.30;4.03;;;;;;;;;;5031421;28;20042;-62
2022/11/25 01:28:46;;;;;;;7.40;3.00;;;;;;;;;;5031442;28;20064;-62
2022/11/25 01:31:14;;;;;;;16.17;4.20;;;;;;;;;;5032761;28;20126;-63
2022/11/25 01:33:41;;;;;;;15.10;4.10;;;;;;;;;;5035282;28;20102;-65
2022/11/25 01:36:09;;;;;;;12.00;3.40;;;;;;;;;;5036690;28;21360;-66
2022/11/25 01:38:36;;;;;;;15.98;3.88;;;;;;;;;;5035016;28;20133;-65
2022/11/25 01:41:03;;;;;;;12.80;3.30;;;;;;;;;;5033381;28;20241;-62
2022/11/25 01:43:30;;;;;;;8.10;2.60;;;;;;;;;;5035465;28;20087;-63
2022/11/25 01:46:09;;;;;;;7.25;3.17;;;;;;;;;;5036156;28;20037;-63
2022/11/25 01:48:41;;;;;;;8.95;3.08;;;;;;;;;;5047317;28;20032;-61
2022/11/25 01:51:28;;;;;;;13.63;3.00;;;;;;;;;;5035372;28;20038;-61
2022/11/25 01:53:57;;;;;;;16.17;3.20;;;;;;;;;;5026286;28;20073;-62
2022/11/25 01:56:24;;;;;;;13.48;2.85;;;;;;;;;;5033583;28;20456;-62
2022/11/25 01:58:51;;;;;;;8.20;2.70;;;;;;;;;;5050629;28;20453;-64
2022/11/25 02:01:17;;;;;;;13.32;3.55;;;;;;;;;;5034182;28;20719;-63
2022/11/25 02:03:46;;;;;;;12.15;3.38;;;;;;;;;;5037107;28;20099;-62
2022/11/25 02:06:31;;;;;;;8.20;2.88;;;;;;;;;;5034349;28;20051;-63
2022/11/25 02:09:01;;;;;;;9.07;3.78;;;;;;;;;;5032200;28;20118;-63
2022/11/25 02:11:29;;;;;;;10.25;3.45;;;;;;;;;;5050666;28;20036;-63
2022/11/25 02:13:57;;;;;;;8.32;3.10;;;;;;;;;;5034875;28;20037;-64
2022/11/25 02:16:24;;;;;;;13.15;3.20;;;;;;;;;;5042471;28;20037;-63
2022/11/25 02:18:50;;;;;;;8.48;2.72;;;;;;;;;;5035093;28;20052;-65
2022/11/25 02:21:20;;;;;;;6.32;2.60;;;;;;;;;;5034784;28;20817;-61
2022/11/25 02:23:51;;;;;;;9.40;3.10;;;;;;;;;;5034107;28;20140;-62
2022/11/25 02:26:18;;;;;;;13.70;3.13;;;;;;;;;;5034913;28;20056;-61
2022/11/25 02:28:44;;;;;;;10.43;2.85;;;;;;;;;;5033983;28;20034;-64
2022/11/25 02:31:11;;;;;;;7.10;2.90;;;;;;;;;;5033001;28;20076;-66
2022/11/25 02:33:38;;;;;;;7.30;3.10;;;;;;;;;;5035928;28;20047;-61
2022/11/25 02:36:12;;;;;;;12.32;2.55;;;;;;;;;;5034032;28;20037;-63
2022/11/25 02:38:42;;;;;;;15.07;2.88;;;;;;;;;;5049048;28;20053;-61
2022/11/25 02:41:17;;;;;;;8.82;3.08;;;;;;;;;;5049169;28;20732;-64
2022/11/25 02:43:44;;;;;;;8.90;3.13;;;;;;;;;;5031879;28;20130;-66
2022/11/25 02:46:12;;;;;;;13.05;3.50;;;;;;;;;;5034829;28;20409;-62
2022/11/25 02:48:40;;;;;;;9.68;3.50;;;;;;;;;;5034466;28;20036;-63
2022/11/25 02:51:08;;;;;;;13.32;3.95;;;;;;;;;;5034081;28;20049;-65
2022/11/25 02:53:34;;;;;;;10.55;4.05;;;;;;;;;;5032805;28;20032;-66
2022/11/25 02:56:01;;;;;;;8.15;3.17;;;;;;;;;;5033264;28;20041;-64
2022/11/25 02:58:28;;;;;;;11.10;3.20;;;;;;;;;;5031314;28;21069;-64
2022/11/25 03:00:55;;;;;;;9.60;3.03;;;;;;;;;;5034850;28;20029;-63
2022/11/25 03:03:21;;;;;;;8.45;2.90;;;;;;;;;;5029304;28;20037;-64
2022/11/25 03:05:48;;;;;;;7.95;2.95;;;;;;;;;;5034255;28;20221;-64
2022/11/25 03:08:15;;;;;;;9.52;4.07;;;;;;;;;;5035436;28;20037;-62
2022/11/25 03:10:41;;;;;;;9.48;3.80;;;;;;;;;;5031246;28;20043;-64
2022/11/25 03:13:09;;;;;;;10.75;3.33;;;;;;;;;;5031505;28;20076;-66
2022/11/25 03:15:35;;;;;;;9.68;3.60;;;;;;;;;;5048531;28;20040;-63
2022/11/25 03:18:03;;;;;;;16.23;4.10;;;;;;;;;;5034480;28;20073;-62
2022/11/25 03:20:30;;;;;;;18.85;4.35;;;;;;;;;;5030446;28;20156;-64
2022/11/25 03:22:56;;;;;;;10.73;4.18;;;;;;;;;;5033783;28;20501;-63
2022/11/25 03:25:23;;;;;;;13.85;4.85;;;;;;;;;;5032126;28;20052;-64
2022/11/25 03:27:49;;;;;;;12.10;4.28;;;;;;;;;;5033607;28;20049;-62
2022/11/25 03:30:18;;;;;;;16.27;3.58;;;;;;;;;;5047892;28;20737;-64
2022/11/25 03:32:45;;;;;;;14.18;3.58;;;;;;;;;;5049710;28;20051;-61
2022/11/25 03:35:12;;;;;;;13.57;2.80;;;;;;;;;;5042409;28;20080;-66
2022/11/25 03:37:39;;;;;;;11.13;3.42;;;;;;;;;;5046886;28;20599;-63
2022/11/25 03:40:06;;;;;;;9.63;2.60;;;;;;;;;;5032332;28;20033;-65
2022/11/25 03:42:33;;;;;;;10.15;3.10;;;;;;;;;;5042561;28;20048;-65
2022/11/25 03:44:59;;;;;;;11.27;3.03;;;;;;;;;;5038146;28;20159;-64
2022/11/25 03:47:26;;;;;;;7.85;2.83;;;;;;;;;;5045156;28;20108;-67
2022/11/25 03:49:53;;;;;;;11.45;2.63;;;;;;;;;;5032554;28;20037;-63
2022/11/25 03:52:20;;;;;;;7.15;2.90;;;;;;;;;;5034107;28;20477;-63
2022/11/25 03:54:46;;;;;;;8.18;2.17;;;;;;;;;;5034881;28;20057;-62
2022/11/25 03:57:13;;;;;;;9.57;1.80;;;;;;;;;;5034142;28;20048;-63
2022/11/25 03:59:39;;;;;;;8.63;1.90;;;;;;;;;;5031356;28;20049;-63
2022/11/25 04:02:06;;;;;;;5.93;1.70;;;;;;;;;;5047769;28;20518;-63
2022/11/25 04:04:33;;;;;;;4.97;1.58;;;;;;;;;;5033681;28;20127;-63
2022/11/25 04:06:59;;;;;;;12.60;2.50;;;;;;;;;;5031661;28;20069;-63
2022/11/25 04:09:26;;;;;;;9.82;2.85;;;;;;;;;;5031280;28;20048;-61
2022/11/25 04:14:37;;;;;;;8.55;2.80;;;;;;;;;;5034500;28;20645;-61
2022/11/25 04:17:04;;;;;;;5.07;2.55;;;;;;;;;;5035766;28;20045;-62
2022/11/25 04:19:31;;;;;;;6.60;2.75;;;;;;;;;;5032771;28;20060;-62
2022/11/25 04:21:59;;;;;;;10.80;3.15;;;;;;;;;;5035863;28;20059;-65
2022/11/25 04:24:27;;;;;;;8.52;2.70;;;;;;;;;;5053163;28;20496;-61
2022/11/25 04:26:53;;;;;;;16.73;3.22;;;;;;;;;;5037332;28;20048;-63
2022/11/25 04:29:20;;;;;;;13.60;3.00;;;;;;;;;;5032819;28;20075;-63
2022/11/25 04:31:47;;;;;;;7.78;2.83;;;;;;;;;;5032357;28;20447;-63
2022/11/25 04:34:13;;;;;;;11.65;2.90;;;;;;;;;;5049193;28;20804;-63
2022/11/25 04:36:40;;;;;;;9.30;2.28;;;;;;;;;;5032906;28;20052;-59
2022/11/25 04:39:06;;;;;;;11.27;2.65;;;;;;;;;;5034595;28;20059;-63
2022/11/25 04:41:33;;;;;;;5.88;2.72;;;;;;;;;;5041595;28;20068;-64
2022/11/25 04:44:00;;;;;;;7.45;3.10;;;;;;;;;;5049428;28;20410;-63
2022/11/25 04:46:31;;;;;;;7.72;2.85;;;;;;;;;;5031014;28;20090;-62
2022/11/25 04:48:57;;;;;;;10.15;3.05;;;;;;;;;;5031062;28;20041;-62
2022/11/25 04:51:24;;;;;;;9.63;3.17;;;;;;;;;;5032285;28;20079;-63
2022/11/25 04:53:51;;;;;;;5.68;3.10;;;;;;;;;;5031514;28;20570;-63
2022/11/25 04:56:19;;;;;;;11.00;3.30;;;;;;;;;;5032375;28;20044;-63
2022/11/25 05:01:31;;;;;;;9.40;3.50;;;;;;;;;;5030615;28;20492;-61
2022/11/25 05:03:57;;;;;;;7.07;2.78;;;;;;;;;;5031851;28;20135;-61
2022/11/25 05:06:24;;;;;;;12.20;4.20;;;;;;;;;;5032023;28;20116;-63
2022/11/25 05:08:51;;;;;;;8.05;2.70;;;;;;;;;;5034141;28;20049;-63
2022/11/25 05:11:18;;;;;;;8.35;2.40;;;;;;;;;;5037773;28;20520;-61
2022/11/25 05:13:44;;;;;;;11.23;3.00;;;;;;;;;;5034280;28;20504;-63
2022/11/25 05:16:11;;;;;;;5.47;2.53;;;;;;;;;;5038414;28;20048;-63
2022/11/25 05:18:38;;;;;;;10.20;2.70;;;;;;;;;;5034424;28;20061;-64
2022/11/25 05:21:06;;;;;;;9.00;2.78;;;;;;;;;;5035701;28;20471;-64
2022/11/25 05:23:32;;;;;;;5.45;2.25;;;;;;;;;;5036277;28;20037;-64
2022/11/25 05:26:00;;;;;;;6.97;2.33;;;;;;;;;;5034449;28;20456;-62
2022/11/25 05:28:27;;;;;;;6.45;2.50;;;;;;;;;;5045162;28;20098;-64
2022/11/25 05:30:54;;;;;;;5.07;2.28;;;;;;;;;;5037956;28;20099;-65
2022/11/25 05:33:21;;;;;;;5.25;2.20;;;;;;;;;;5035431;28;20101;-63
2022/11/25 05:35:57;;;;;;;5.35;1.85;;;;;;;;;;5045426;28;20493;-63
2022/11/25 05:38:25;;;;;;;4.35;1.60;;;;;;;;;;5050975;28;20057;-64
2022/11/25 05:40:51;;;;;;;4.47;1.65;;;;;;;;;;5032547;28;20313;-63
2022/11/25 05:43:18;;;;;;;5.38;1.70;;;;;;;;;;5035095;28;20041;-63
2022/11/25 05:45:45;;;;;;;5.30;1.90;;;;;;;;;;5037122;28;20040;-63
2022/11/25 05:48:12;;;;;;;6.47;2.40;;;;;;;;;;5036996;28;20742;-64
2022/11/25 05:50:38;;;;;;;4.28;1.67;;;;;;;;;;5036517;28;20041;-63
2022/11/25 05:53:05;;;;;;;5.80;2.05;;;;;;;;;;5036225;28;20056;-61
2022/11/25 05:55:32;;;;;;;4.57;1.63;;;;;;;;;;5035126;28;20132;-64
2022/11/25 05:57:58;;;;;;;3.80;1.42;;;;;;;;;;5039321;28;20449;-62
2022/11/25 06:00:26;;;;;;;7.70;1.85;;;;;;;;;;5034828;28;20452;-62
2022/11/25 06:02:53;;;;;;;7.10;1.67;;;;;;;;;;5034473;28;20044;-64
2022/11/25 06:05:20;;;;;;;4.22;1.38;;;;;;;;;;5037960;28;20041;-64
2022/11/25 06:07:46;;;;;;;5.35;1.80;;;;;;;;;;5035774;28;20047;-63
2022/11/25 06:10:13;;;;;;;5.20;1.50;;;;;;;;;;5037060;28;20041;-64
2022/11/25 06:12:40;;;;;;;6.78;1.55;;;;;;;;;;5037236;28;20147;-63
2022/11/25 06:15:06;;;;;;;5.07;1.50;;;;;;;;;;5036899;28;20048;-62
2022/11/25 06:17:33;;;;;;;7.20;1.60;;;;;;;;;;5036345;28;20041;-61
2022/11/25 06:20:00;;;;;;;3.13;1.23;;;;;;;;;;5036487;28;20367;-64
2022/11/25 06:22:26;;;;;;;4.15;1.42;;;;;;;;;;5036234;28;20147;-63
2022/11/25 06:24:53;;;;;;;4.85;1.27;;;;;;;;;;5038639;28;20045;-63
2022/11/25 06:27:20;;;;;;;4.82;1.33;;;;;;;;;;5036633;28;20056;-62
2022/11/25 06:29:46;;;;;;;4.90;1.30;;;;;;;;;;5036320;28;20541;-63
2022/11/25 06:32:13;;;;;;;4.75;1.60;;;;;;;;;;5037121;28;20873;-64
2022/11/25 06:34:41;;;;;;;6.05;1.77;;;;;;;;;;5036901;28;20044;-62
2022/11/25 06:37:08;;;;;;;6.53;2.05;;;;;;;;;;5044656;28;20073;-62
2022/11/25 06:39:35;;;;;;;4.70;1.50;;;;;;;;;;5035694;28;20045;-64
2022/11/25 06:42:01;;;;;;;5.68;1.40;;;;;;;;;;5038483;28;20037;-66
2022/11/25 06:44:28;;;;;;;5.55;1.30;;;;;;;;;;5043043;28;20613;-63
2022/11/25 06:46:54;;;;;;;5.63;1.40;;;;;;;;;;5036550;28;20033;-64
2022/11/25 06:49:21;;;;;;;3.53;1.02;;;;;;;;;;5048029;28;20049;-64
2022/11/25 06:51:49;;;;;;;5.68;1.45;;;;;;;;;;5032980;28;20079;-63
2022/11/25 06:54:15;;;;;;;3.88;1.30;;;;;;;;;;5049244;28;20057;-63
2022/11/25 06:56:42;;;;;;;5.18;1.30;;;;;;;;;;5034534;28;20041;-64
2022/11/25 06:59:09;;;;;;;6.25;1.27;;;;;;;;;;5047679;28;20080;-61
2022/11/25 07:01:37;;;;;;;6.80;1.35;;;;;;;;;;5032954;28;20036;-62
2022/11/25 07:04:05;;;;;;;4.32;1.52;;;;;;;;;;5034887;28;20051;-63
2022/11/25 07:06:32;;;;;;;4.00;1.33;;;;;;;;;;5033692;28;20036;-65
2022/11/25 07:08:59;;;;;;;4.35;1.25;;;;;;;;;;5043438;28;20063;-63
2022/11/25 07:11:29;;;;;;;4.82;1.05;;;;;;;;;;5035652;28;20106;-64
2022/11/25 07:14:00;;;;;;;3.58;0.90;;;;;;;;;;5036261;28;20071;-63
2022/11/25 07:16:28;;;;;;;4.47;0.93;;;;;;;;;;5033640;28;20041;-62
2022/11/25 07:18:55;;;;;;;4.70;1.15;;;;;;;;;;5033545;28;20055;-64
2022/11/25 07:21:23;;;;;;;2.70;1.02;;;;;;;;;;5034731;28;20128;-64
2022/11/25 07:23:50;;;;;;;5.30;1.02;;;;;;;;;;5034772;28;20757;-65
2022/11/25 07:26:20;;;;;;;3.25;0.63;;;;;;;;;;5032407;28;20591;-63
2022/11/25 07:28:47;;;;;;;2.40;0.70;;;;;;;;;;5028144;28;20041;-63
2022/11/25 07:31:16;;;;;;;2.45;0.65;;;;;;;;;;5027971;28;20041;-63
2022/11/25 07:33:43;;;;;;;5.30;0.73;;;;;;;;;;5013892;28;20120;-65
2022/11/25 07:36:10;;;;;;;4.03;0.70;;;;;;;;;;5016675;28;20589;-63
2022/11/25 07:38:37;;;;;;;3.70;0.70;;;;;;;;;;5011704;28;20912;-61
2022/11/25 07:41:05;;;;;;;3.30;0.65;;;;;;;;;;5012819;28;20494;-64
2022/11/25 07:43:32;;;;;;;2.83;0.82;;;;;;;;;;5010671;28;20122;-62
2022/11/25 07:46:09;;;;;;;3.13;0.88;;;;;;;;;;5011623;28;20042;-64
2022/11/25 07:48:35;;;;;;;1.55;0.50;;;;;;;;;;5011390;28;20042;-64
2022/11/25 07:51:02;;;;;;;1.63;0.50;;;;;;;;;;5012375;28;20662;-64
2022/11/25 07:53:29;;;;;;;1.40;0.50;;;;;;;;;;5011621;28;20034;-64
2022/11/25 07:55:55;;;;;;;1.35;0.43;;;;;;;;;;5015119;28;20052;-64
2022/11/25 07:58:22;;;;;;;1.38;0.45;;;;;;;;;;5013141;28;20566;-64
2022/11/25 08:00:48;;;;;;;2.55;0.50;;;;;;;;;;5011920;28;20033;-65
2022/11/25 08:03:15;;;;;;;1.85;0.60;;;;;;;;;;5013791;28;20072;-64
2022/11/25 08:05:42;;;;;;;3.13;0.52;;;;;;;;;;5012361;28;20037;-65
2022/11/25 08:08:08;;;;;;;2.38;0.70;;;;;;;;;;5012076;28;20044;-64
2022/11/25 08:10:35;;;;;;;1.20;0.50;;;;;;;;;;5021686;28;20609;-65
2022/11/25 08:13:01;;;;;;;1.77;0.50;;;;;;;;;;5012546;28;20092;-63
2022/11/25 08:15:28;;;;;;;3.67;0.60;;;;;;;;;;5011465;28;20156;-64
2022/11/25 08:17:55;;;;;;;2.97;0.57;;;;;;;;;;5013771;28;20041;-64
2022/11/25 08:20:21;;;;;;;0.88;0.40;;;;;;;;;;5012396;28;20037;-64
2022/11/25 08:22:48;;;;;;;1.35;0.50;;;;;;;;;;5013930;28;20133;-63
2022/11/25 08:25:15;;;;;;;0.77;0.40;;;;;;;;;;5013235;28;20553;-64
2022/11/25 08:27:41;;;;;;;2.00;0.50;;;;;;;;;;5012099;28;20056;-65
2022/11/25 08:30:08;;;;;;;1.48;0.47;;;;;;;;;;5011807;28;20117;-62
2022/11/25 08:32:38;;;;;;;2.58;0.43;;;;;;;;;;5012028;28;21002;-64
2022/11/25 08:35:05;;;;;;;3.83;0.50;;;;;;;;;;5013568;28;20135;-63
2022/11/25 08:37:32;;;;;;;1.48;0.50;;;;;;;;;;5013990;28;20732;-63
2022/11/25 08:39:59;;;;;;;2.38;0.50;;;;;;;;;;5012064;28;20083;-63
2022/11/25 08:42:25;;;;;;;1.15;0.40;;;;;;;;;;5010946;28;20039;-63
2022/11/25 08:44:54;;;;;;;1.27;0.50;;;;;;;;;;5012296;28;20057;-63
2022/11/25 08:47:21;;;;;;;1.48;0.50;;;;;;;;;;5014082;28;20188;-62
2022/11/25 08:49:51;;;;;;;1.35;0.43;;;;;;;;;;5010258;28;20053;-63
2022/11/25 08:52:17;;;;;;;1.98;0.60;;;;;;;;;;5012971;28;20124;-63
2022/11/25 08:54:44;;;;;;;1.15;0.45;;;;;;;;;;5011097;28;20048;-63
2022/11/25 08:57:10;;;;;;;1.67;0.60;;;;;;;;;;5012961;28;20045;-62
2022/11/25 08:59:37;;;;;;;4.88;0.60;;;;;;;;;;5012285;28;20045;-65
2022/11/25 09:02:05;;;;;;;1.05;0.43;;;;;;;;;;5015057;28;20065;-64
2022/11/25 09:04:31;;;;;;;1.67;0.47;;;;;;;;;;5012482;28;20065;-63
2022/11/25 09:06:58;;;;;;;1.20;0.50;;;;;;;;;;5013440;28;20152;-64
2022/11/25 09:09:24;;;;;;;1.90;0.40;;;;;;;;;;5010674;28;20049;-65
2022/11/25 09:11:51;;;;;;;1.10;0.40;;;;;;;;;;5011855;28;20065;-63
2022/11/25 09:14:18;;;;;;;2.25;0.73;;;;;;;;;;5013872;28;20498;-64
2022/11/25 09:16:44;;;;;;;2.03;0.60;;;;;;;;;;5013988;28;20033;-63
2022/11/25 09:19:11;;;;;;;0.60;0.30;;;;;;;;;;5028982;28;20072;-62
2022/11/25 09:21:37;;;;;;;4.88;0.60;;;;;;;;;;5016278;28;20042;-65
2022/11/25 09:24:04;;;;;;;1.50;0.40;;;;;;;;;;5016336;28;20771;-64
2022/11/25 09:26:34;;;;;;;0.88;0.38;;;;;;;;;;5014801;28;20037;-64
2022/11/25 09:29:01;;;;;;;3.47;0.60;;;;;;;;;;5012420;28;20450;-65
2022/11/25 09:31:27;;;;;;;1.67;0.45;;;;;;;;;;5013172;28;20061;-64
2022/11/25 09:33:54;;;;;;;3.47;0.50;;;;;;;;;;5011550;28;21014;-65
2022/11/25 09:36:22;;;;;;;2.10;0.55;;;;;;;;;;5011116;28;20045;-65
2022/11/25 09:38:49;;;;;;;0.82;0.40;;;;;;;;;;5013661;28;20665;-65
2022/11/25 09:47:47;;;;;;;1.45;0.52;;;;;;;;;;5012239;28;20572;-64
2022/11/25 09:50:23;;;;;;;0.75;0.40;;;;;;;;;;5010001;28;20056;-64
2022/11/25 09:52:58;;;;;;;2.20;0.50;;;;;;;;;;5012111;28;20041;-64
2022/11/25 09:55:25;;;;;;;1.88;0.50;;;;;;;;;;5015598;28;20061;-65
2022/11/25 09:58:10;;;;;;;1.65;0.50;;;;;;;;;;5016119;28;20037;-64
2022/11/25 10:00:39;;;;;;;2.17;0.60;;;;;;;;;;5014724;28;20463;-64
2022/11/25 10:03:14;;;;;;;2.15;0.60;;;;;;;;;;5015152;28;21683;-63
2022/11/25 10:05:44;;;;;;;1.33;0.40;;;;;;;;;;5018349;28;20053;-65
2022/11/25 10:08:22;;;;;;;1.42;0.50;;;;;;;;;;5013125;28;20976;-64
2022/11/25 10:11:09;;;;;;;1.83;0.52;;;;;;;;;;5014822;28;20045;-65
2022/11/25 10:13:51;;;;;;;1.90;0.60;;;;;;;;;;5004695;28;20172;-65
2022/11/25 10:16:35;;;;;;;1.95;0.40;;;;;;;;;;5013653;28;20065;-68
2022/11/25 10:19:05;;;;;;;1.98;0.57;;;;;;;;;;5022667;28;20421;-64
2022/11/25 10:21:32;;;;;;;3.85;0.52;;;;;;;;;;5014340;28;20549;-64
2022/11/25 10:23:58;;;;;;;3.42;0.70;;;;;;;;;;5025099;28;20128;-66
2022/11/25 10:26:29;;;;;;;1.58;0.40;;;;;;;;;;5014926;28;20041;-65
2022/11/25 10:29:06;;;;;;;2.47;0.60;;;;;;;;;;5013110;28;20041;-65
2022/11/25 10:31:35;;;;;;;3.03;0.68;;;;;;;;;;5031145;28;20053;-65
2022/11/25 10:34:02;;;;;;;0.93;0.50;;;;;;;;;;5018361;28;20048;-63
2022/11/25 10:36:38;;;;;;;4.03;0.50;;;;;;;;;;5014467;28;20535;-64
2022/11/25 10:39:07;;;;;;;1.50;0.40;;;;;;;;;;5014733;28;20468;-64
2022/11/25 10:41:42;;;;;;;1.30;0.40;;;;;;;;;;5029583;28;20030;-64
2022/11/25 10:44:18;;;;;;;1.77;0.60;;;;;;;;;;5016226;28;20071;-63
2022/11/25 10:46:53;;;;;;;1.23;0.50;;;;;;;;;;5015080;28;20419;-65
2022/11/25 10:49:26;;;;;;;1.45;0.50;;;;;;;;;;5013102;28;20038;-64
2022/11/25 10:51:53;;;;;;;2.00;0.50;;;;;;;;;;5014555;28;20052;-65
2022/11/25 10:54:21;;;;;;;1.40;0.40;;;;;;;;;;5021655;28;20034;-66
2022/11/25 10:56:49;;;;;;;2.10;0.60;;;;;;;;;;5013198;28;20161;-65
2022/11/25 10:59:42;;;;;;;2.40;0.60;;;;;;;;;;5013375;28;20052;-64
2022/11/25 11:02:15;;;;;;;1.55;0.43;;;;;;;;;;5013024;28;20413;-65
2022/11/25 11:05:02;;;;;;;1.10;0.40;;;;;;;;;;5014081;28;20038;-65
2022/11/25 11:07:31;;;;;;;3.10;0.43;;;;;;;;;;5014729;28;20036;-66
2022/11/25 11:10:19;;;;;;;3.30;0.60;;;;;;;;;;5012909;28;20048;-65
2022/11/25 11:12:59;;;;;;;1.98;0.57;;;;;;;;;;5013443;28;20057;-66
2022/11/25 11:15:52;;;;;;;0.85;0.40;;;;;;;;;;5013935;28;20037;-63
2022/11/25 11:18:41;;;;;;;1.88;0.45;;;;;;;;;;5011680;28;20053;-65
2022/11/25 11:21:08;;;;;;;0.98;0.43;;;;;;;;;;5013655;28;20073;-65
2022/11/25 11:23:49;;;;;;;2.95;0.63;;;;;;;;;;5014878;28;20601;-63
2022/11/25 11:26:35;;;;;;;4.25;0.50;;;;;;;;;;5013542;28;20049;-64
2022/11/25 11:29:15;;;;;;;1.27;0.40;;;;;;;;;;5014219;28;20076;-63
2022/11/25 11:31:48;;;;;;;1.83;0.40;;;;;;;;;;5015121;28;20053;-64
2022/11/25 11:34:31;;;;;;;1.90;0.60;;;;;;;;;;5015537;28;20046;-64
2022/11/25 11:37:01;;;;;;;1.80;0.50;;;;;;;;;;5015712;28;20295;-64
2022/11/25 11:39:34;;;;;;;1.45;0.50;;;;;;;;;;5012548;28;20601;-65
2022/11/25 11:42:10;;;;;;;1.08;0.40;;;;;;;;;;5014014;28;20037;-65
2022/11/25 11:44:58;;;;;;;1.85;0.50;;;;;;;;;;5021245;28;20038;-65
2022/11/25 11:47:37;;;;;;;2.00;0.65;;;;;;;;;;5012354;28;20037;-67
2022/11/25 11:50:23;;;;;;;3.47;0.55;;;;;;;;;;5028375;28;20088;-64
2022/11/25 11:52:52;;;;;;;2.15;0.60;;;;;;;;;;5013929;28;20042;-62
2022/11/25 11:55:19;;;;;;;1.65;0.55;;;;;;;;;;5028129;28;20096;-64
2022/11/25 11:58:04;;;;;;;1.35;0.52;;;;;;;;;;5021800;28;20033;-64
2022/11/25 12:00:37;;;;;;;1.73;0.40;;;;;;;;;;5013785;28;20056;-63
2022/11/25 12:03:16;;;;;;;2.13;0.47;;;;;;;;;;5014380;28;20056;-62
2022/11/25 12:05:43;;;;;;;2.35;0.60;;;;;;;;;;5012363;28;20528;-63
2022/11/25 12:08:13;;;;;;;3.55;0.70;;;;;;;;;;5013965;28;20048;-64
2022/11/25 12:10:43;;;;;;;1.90;0.60;;;;;;;;;;5012636;28;21127;-62
2022/11/25 12:13:20;;;;;;;1.55;0.50;;;;;;;;;;5012080;28;20589;-63
2022/11/25 12:15:56;;;;;;;4.10;0.50;;;;;;;;;;5027425;28;20129;-66
2022/11/25 12:18:41;;;;;;;0.68;0.40;;;;;;;;;;5012819;28;20476;-63
2022/11/25 12:21:11;;;;;;;2.45;0.52;;;;;;;;;;5027727;28;20128;-65
2022/11/25 12:23:41;;;;;;;1.70;0.50;;;;;;;;;;5028033;28;20048;-66
2022/11/25 12:26:34;;;;;;;2.20;0.50;;;;;;;;;;5013889;28;20041;-65
2022/11/25 12:29:03;;;;;;;2.30;0.60;;;;;;;;;;4997736;28;20050;-65
2022/11/25 12:31:32;;;;;;;2.85;0.70;;;;;;;;;;5011188;28;20041;-65
2022/11/25 12:34:04;;;;;;;0.98;0.43;;;;;;;;;;5012282;28;20049;-66
2022/11/25 12:36:35;;;;;;;2.28;0.60;;;;;;;;;;5011750;28;20048;-65
2022/11/25 12:39:15;;;;;;;2.80;0.63;;;;;;;;;;5012793;28;20211;-66
2022/11/25 12:41:43;;;;;;;1.70;0.38;;;;;;;;;;5026651;28;20118;-65
2022/11/25 12:44:14;;;;;;;4.28;0.80;;;;;;;;;;5025586;28;20828;-64
2022/11/25 12:46:51;;;;;;;1.80;0.57;;;;;;;;;;5011688;28;20037;-65
2022/11/25 12:49:18;;;;;;;1.00;0.40;;;;;;;;;;5014165;28;20081;-66
2022/11/25 12:52:03;;;;;;;1.02;0.40;;;;;;;;;;5017510;28;20502;-64
2022/11/25 12:54:45;;;;;;;1.52;0.47;;;;;;;;;;5010110;28;20037;-64
2022/11/25 12:57:20;;;;;;;2.53;0.50;;;;;;;;;;5011592;28;20171;-64
2022/11/25 12:59:50;;;;;;;2.83;0.63;;;;;;;;;;5012260;28;20049;-63
2022/11/25 13:02:35;;;;;;;0.98;0.40;;;;;;;;;;5013142;28;20045;-65
2022/11/25 13:05:04;;;;;;;1.67;0.50;;;;;;;;;;5010922;28;20041;-62
2022/11/25 13:07:40;;;;;;;1.45;0.40;;;;;;;;;;5011578;28;20049;-62
2022/11/25 13:10:12;;;;;;;1.33;0.43;;;;;;;;;;5027880;28;21773;-64
2022/11/25 13:12:39;;;;;;;1.10;0.35;;;;;;;;;;5011030;28;20526;-63
2022/11/25 13:15:18;;;;;;;0.85;0.40;;;;;;;;;;5027634;28;20037;-62
2022/11/25 13:17:45;;;;;;;3.90;0.50;;;;;;;;;;5021177;28;20034;-65
2022/11/25 13:20:27;;;;;;;1.75;0.50;;;;;;;;;;5025603;28;20134;-62
2022/11/25 13:23:07;;;;;;;1.60;0.50;;;;;;;;;;5032397;28;20059;-64
2022/11/25 13:25:34;;;;;;;1.40;0.55;;;;;;;;;;5030900;28;20052;-63
2022/11/25 13:28:19;;;;;;;2.08;0.50;;;;;;;;;;5034844;28;20029;-61
2022/11/25 13:30:50;;;;;;;0.82;0.40;;;;;;;;;;5029639;28;20041;-62
2022/11/25 13:33:17;;;;;;;1.67;0.38;;;;;;;;;;5017939;28;20095;-63
2022/11/25 13:35:44;;;;;;;1.15;0.43;;;;;;;;;;5022645;28;20059;-65
2022/11/25 13:38:29;;;;;;;1.23;0.43;;;;;;;;;;5035176;28;20036;-62
2022/11/25 13:40:57;;;;;;;2.22;0.45;;;;;;;;;;5037578;28;20045;-63
2022/11/25 13:43:24;;;;;;;2.50;0.50;;;;;;;;;;5035613;28;20131;-64
2022/11/25 13:45:50;;;;;;;2.05;0.50;;;;;;;;;;5036730;28;20065;-64
2022/11/25 13:48:20;;;;;;;1.90;0.50;;;;;;;;;;5036227;28;20044;-65
2022/11/25 13:50:47;;;;;;;3.53;0.50;;;;;;;;;;5031496;28;20044;-64
2022/11/25 13:53:34;;;;;;;2.03;0.60;;;;;;;;;;5015405;28;20046;-62
2022/11/25 13:56:25;;;;;;;1.30;0.40;;;;;;;;;;5012569;28;20045;-64
2022/11/25 13:59:10;;;;;;;2.25;0.47;;;;;;;;;;5013501;28;20116;-62
2022/11/25 14:01:40;;;;;;;1.45;0.50;;;;;;;;;;5015751;28;20045;-64
2022/11/25 14:04:07;;;;;;;5.30;0.70;;;;;;;;;;5014964;28;20057;-61
2022/11/25 14:06:49;;;;;;;2.80;0.70;;;;;;;;;;5015252;28;20046;-63
2022/11/25 14:09:22;;;;;;;2.30;0.40;;;;;;;;;;5017057;28;20180;-63
2022/11/25 14:11:48;;;;;;;1.47;0.50;;;;;;;;;;5032539;28;20168;-62
2022/11/25 14:14:18;;;;;;;2.38;0.50;;;;;;;;;;5015697;28;20037;-61
2022/11/25 14:16:50;;;;;;;1.55;0.43;;;;;;;;;;5015923;28;20041;-63
2022/11/25 14:19:43;;;;;;;3.00;0.52;;;;;;;;;;5043678;28;20052;-63
2022/11/25 14:22:19;;;;;;;1.02;0.40;;;;;;;;;;5044022;28;20932;-63
2022/11/25 14:24:50;;;;;;;1.23;0.40;;;;;;;;;;5047602;28;20080;-62
2022/11/25 14:27:22;;;;;;;1.08;0.40;;;;;;;;;;5038982;28;20055;-64
2022/11/25 14:30:14;;;;;;;2.92;0.50;;;;;;;;;;5045894;28;20048;-62
2022/11/25 14:32:44;;;;;;;1.58;0.52;;;;;;;;;;5041556;28;20577;-62
2022/11/25 14:35:20;;;;;;;1.17;0.40;;;;;;;;;;5043263;28;20041;-63
2022/11/25 14:38:01;;;;;;;4.45;0.52;;;;;;;;;;5043394;28;20536;-64
2022/11/25 14:40:46;;;;;;;1.77;0.50;;;;;;;;;;5041225;28;20265;-62
2022/11/25 14:43:15;;;;;;;1.88;0.43;;;;;;;;;;5043385;28;20041;-62
2022/11/25 14:45:41;;;;;;;1.35;0.40;;;;;;;;;;5042336;28;20037;-64
2022/11/25 14:48:18;;;;;;;1.90;0.50;;;;;;;;;;5044843;28;20090;-61
2022/11/25 14:51:14;;;;;;;1.40;0.50;;;;;;;;;;5028714;28;20161;-63
2022/11/25 14:53:44;;;;;;;1.83;0.50;;;;;;;;;;5025878;28;20044;-63
2022/11/25 14:56:12;;;;;;;2.47;0.60;;;;;;;;;;5035257;28;20040;-63
2022/11/25 14:58:46;;;;;;;1.90;0.50;;;;;;;;;;5034588;28;20052;-62
2022/11/25 15:01:12;;;;;;;;;;;;;;;;;;5034775;28;20033;-64
2022/11/25 15:03:38;;;;;;;2.70;0.50;;;;;;;;;;5032593;28;19921;-62
2022/11/25 15:06:06;;;;;;;1.83;0.60;;;;;;;;;;5034491;28;20460;-63
2022/11/25 15:08:42;;;;;;;1.35;0.47;;;;;;;;;;5032448;28;20553;-61
2022/11/25 15:11:29;;;;;;;2.25;0.50;;;;;;;;;;5034237;28;20041;-63
2022/11/25 15:14:06;;;;;;;4.70;0.80;;;;;;;;;;5047915;28;20041;-63